Time;durP1;ratioP1;P1;durP2;ratioP2;P2;SDS_P1;SDS_P2;PMS_P1;PMS_P2;Temp;Humidity;BMP_temperature;BMP_pressure;BME280_temperature;BME280_humidity;BME280_pressure;Samples;Min_cycle;Max_cycle;Signal;HPM_P1;HPM_P2
2023/08/12 00:01:35;;;;;;;6.40;3.90;;;20.10;91.10;;;;;;5053540;28;20934;-69
2023/08/12 00:04:04;;;;;;;7.03;4.07;;;20.10;91.30;;;;;;5053770;28;20454;-69
2023/08/12 00:06:31;;;;;;;5.67;4.37;;;20.00;91.30;;;;;;5053821;28;20434;-69
2023/08/12 00:08:58;;;;;;;7.57;4.33;;;20.00;90.90;;;;;;5054054;28;20431;-69
2023/08/12 00:11:26;;;;;;;4.97;4.37;;;20.00;90.80;;;;;;5053368;28;20976;-69
2023/08/12 00:13:54;;;;;;;5.30;3.90;;;19.90;90.80;;;;;;5053033;28;21010;-69
2023/08/12 00:16:22;;;;;;;5.03;4.30;;;19.90;90.80;;;;;;5053684;28;20519;-69
2023/08/12 00:19:00;;;;;;;5.50;4.37;;;19.80;90.60;;;;;;5053541;28;20470;-69
2023/08/12 00:21:34;;;;;;;5.37;4.10;;;19.80;90.60;;;;;;5053765;28;20434;-69
2023/08/12 00:24:01;;;;;;;4.80;3.60;;;19.80;90.80;;;;;;5053439;28;20812;-69
2023/08/12 00:26:28;;;;;;;4.50;3.80;;;19.70;91.00;;;;;;5053115;28;20839;-69
2023/08/12 00:28:55;;;;;;;6.87;4.87;;;19.70;91.50;;;;;;5053885;28;20767;-71
2023/08/12 00:31:23;;;;;;;5.47;4.37;;;19.60;91.20;;;;;;5053539;28;20442;-69
2023/08/12 00:33:55;;;;;;;4.80;4.30;;;19.70;91.50;;;;;;5052869;28;20446;-69
2023/08/12 00:36:22;;;;;;;6.27;5.10;;;19.60;91.10;;;;;;5053629;28;20424;-69
2023/08/12 00:38:51;;;;;;;7.93;6.60;;;19.60;91.40;;;;;;5053178;28;21983;-69
2023/08/12 00:41:18;;;;;;;11.33;5.73;;;19.60;91.70;;;;;;5053038;28;20446;-69
2023/08/12 00:43:46;;;;;;;5.27;4.33;;;19.50;91.80;;;;;;5053129;28;20450;-69
2023/08/12 00:46:14;;;;;;;8.27;4.87;;;19.50;91.50;;;;;;5052968;28;20427;-69
2023/08/12 00:48:43;;;;;;;6.30;4.60;;;19.50;91.60;;;;;;5052462;28;20446;-69
2023/08/12 00:51:11;;;;;;;6.80;5.60;;;19.40;91.60;;;;;;5053357;28;20447;-69
2023/08/12 00:53:40;;;;;;;8.67;5.00;;;19.40;91.60;;;;;;5052933;28;20442;-69
2023/08/12 00:56:09;;;;;;;6.60;4.00;;;19.30;91.60;;;;;;5053379;28;20441;-69
2023/08/12 00:58:42;;;;;;;8.13;4.40;;;19.20;92.00;;;;;;5052368;28;20427;-71
2023/08/12 01:01:11;;;;;;;6.73;5.90;;;19.20;92.30;;;;;;5052586;28;20430;-70
2023/08/12 01:03:38;;;;;;;5.30;3.93;;;19.10;92.40;;;;;;5052863;28;20445;-69
2023/08/12 01:06:07;;;;;;;8.03;4.60;;;19.10;92.30;;;;;;5052899;28;20438;-69
2023/08/12 01:08:37;;;;;;;5.37;4.37;;;19.10;92.20;;;;;;5053329;28;20434;-69
2023/08/12 01:11:13;;;;;;;7.07;4.27;;;19.00;92.20;;;;;;5032346;28;20990;-70
2023/08/12 01:13:50;;;;;;;7.23;5.00;;;19.00;92.20;;;;;;5032745;28;20423;-69
2023/08/12 01:16:22;;;;;;;5.57;4.00;;;19.00;92.20;;;;;;5033067;28;20420;-69
2023/08/12 01:18:53;;;;;;;7.20;4.00;;;19.00;92.00;;;;;;5034519;28;20832;-69
2023/08/12 01:21:25;;;;;;;7.07;4.63;;;19.00;92.00;;;;;;5053024;28;20526;-69
2023/08/12 01:23:54;;;;;;;6.07;4.57;;;18.90;92.20;;;;;;5052669;28;20419;-69
2023/08/12 01:26:23;;;;;;;5.67;4.63;;;18.90;92.20;;;;;;5052467;28;20481;-69
2023/08/12 01:28:54;;;;;;;9.00;4.93;;;18.80;92.30;;;;;;5052735;28;20438;-69
2023/08/12 01:31:29;;;;;;;5.60;4.03;;;18.80;92.40;;;;;;5053027;28;20444;-69
2023/08/12 01:34:03;;;;;;;5.10;4.27;;;18.80;92.80;;;;;;5053029;28;20471;-69
2023/08/12 01:36:33;;;;;;;6.00;4.87;;;18.70;93.10;;;;;;5052960;28;20783;-69
2023/08/12 01:39:02;;;;;;;6.27;4.80;;;18.70;93.40;;;;;;5053992;28;21009;-69
2023/08/12 01:41:30;;;;;;;6.50;4.30;;;18.60;93.40;;;;;;5055709;28;20517;-69
2023/08/12 01:43:57;;;;;;;5.27;4.23;;;18.60;93.30;;;;;;5056362;28;20496;-69
2023/08/12 01:46:24;;;;;;;5.30;4.33;;;18.60;93.30;;;;;;5056476;28;20442;-69
2023/08/12 01:48:51;;;;;;;6.13;4.07;;;18.60;93.20;;;;;;5056377;28;20442;-69
2023/08/12 01:51:23;;;;;;;4.97;3.80;;;18.50;93.10;;;;;;5056613;28;20430;-69
2023/08/12 01:53:50;;;;;;;5.30;3.67;;;18.50;93.00;;;;;;5056469;28;20966;-69
2023/08/12 01:56:19;;;;;;;4.97;3.40;;;18.50;92.90;;;;;;5056085;28;20429;-69
2023/08/12 01:58:46;;;;;;;5.50;4.10;;;18.50;93.00;;;;;;5055891;28;20434;-69
2023/08/12 02:01:15;;;;;;;7.43;3.67;;;18.40;93.10;;;;;;5056080;28;20441;-69
2023/08/12 02:03:42;;;;;;;7.13;4.63;;;18.40;93.00;;;;;;5056178;28;20462;-69
2023/08/12 02:06:10;;;;;;;6.80;4.73;;;18.40;92.70;;;;;;5055954;28;20442;-69
2023/08/12 02:08:37;;;;;;;5.30;4.00;;;18.40;93.00;;;;;;5055805;28;20783;-69
2023/08/12 02:11:05;;;;;;;4.90;4.07;;;18.40;93.00;;;;;;5055792;28;20501;-69
2023/08/12 02:13:33;;;;;;;7.93;5.63;;;18.30;93.30;;;;;;5055562;28;20913;-69
2023/08/12 02:16:00;;;;;;;6.20;5.27;;;18.30;93.40;;;;;;5055879;28;20434;-69
2023/08/12 02:18:28;;;;;;;7.03;4.80;;;18.20;93.70;;;;;;5055379;28;20446;-69
2023/08/12 02:20:55;;;;;;;5.73;4.70;;;18.20;94.00;;;;;;5055646;28;20477;-69
2023/08/12 02:23:22;;;;;;;8.47;4.70;;;18.20;94.10;;;;;;5055733;28;20446;-69
2023/08/12 02:25:54;;;;;;;8.63;5.50;;;18.20;94.20;;;;;;5055991;28;20426;-69
2023/08/12 02:28:22;;;;;;;6.10;4.70;;;18.20;94.40;;;;;;5055898;28;20429;-69
2023/08/12 02:30:50;;;;;;;5.47;4.40;;;18.30;94.30;;;;;;5054246;28;20480;-69
2023/08/12 02:33:19;;;;;;;5.30;4.10;;;18.30;94.00;;;;;;5053896;28;20453;-69
2023/08/12 02:35:48;;;;;;;10.67;5.20;;;18.30;93.80;;;;;;5055397;28;20928;-69
2023/08/12 02:38:17;;;;;;;8.33;5.17;;;18.30;94.10;;;;;;5055338;28;20441;-69
2023/08/12 02:40:48;;;;;;;6.10;4.53;;;18.30;93.60;;;;;;5054803;28;20630;-69
2023/08/12 02:43:15;;;;;;;6.27;5.20;;;18.30;93.20;;;;;;5055239;28;20429;-69
2023/08/12 02:45:42;;;;;;;8.20;5.77;;;18.20;93.10;;;;;;5055160;28;20473;-69
2023/08/12 02:48:11;;;;;;;8.10;6.20;;;18.30;93.50;;;;;;5055192;28;20442;-69
2023/08/12 02:50:39;;;;;;;5.33;4.83;;;18.30;93.70;;;;;;5053881;28;20781;-69
2023/08/12 02:53:07;;;;;;;7.37;4.43;;;18.20;93.50;;;;;;5055350;28;20464;-69
2023/08/12 02:55:37;;;;;;;7.00;5.13;;;18.20;93.00;;;;;;5054842;28;20441;-69
2023/08/12 02:58:05;;;;;;;5.07;4.50;;;18.20;92.90;;;;;;5055319;28;20442;-69
2023/08/12 03:00:37;;;;;;;6.70;5.80;;;18.10;93.10;;;;;;5054301;28;20473;-69
2023/08/12 03:03:05;;;;;;;7.30;5.40;;;18.10;93.30;;;;;;5054980;28;20433;-69
2023/08/12 03:05:34;;;;;;;9.90;6.57;;;18.00;94.00;;;;;;5055171;28;20825;-69
2023/08/12 03:08:03;;;;;;;5.93;5.07;;;18.00;94.20;;;;;;5054682;28;20487;-69
2023/08/12 03:10:34;;;;;;;6.77;5.27;;;18.00;94.00;;;;;;5054251;28;20474;-69
2023/08/12 03:13:02;;;;;;;6.20;4.50;;;18.00;93.40;;;;;;5055049;28;20432;-69
2023/08/12 03:15:29;;;;;;;7.37;5.97;;;17.90;93.20;;;;;;5054874;28;20486;-69
2023/08/12 03:17:57;;;;;;;9.03;6.00;;;17.90;93.40;;;;;;5054380;28;20438;-69
2023/08/12 03:20:26;;;;;;;8.13;5.50;;;17.80;93.40;;;;;;5054652;28;20482;-69
2023/08/12 03:22:55;;;;;;;8.40;5.17;;;17.80;93.20;;;;;;5054605;28;20441;-69
2023/08/12 03:25:22;;;;;;;8.87;6.00;;;17.80;92.90;;;;;;5054883;28;20433;-69
2023/08/12 03:27:50;;;;;;;7.73;6.10;;;17.80;93.10;;;;;;5054566;28;20938;-69
2023/08/12 03:30:17;;;;;;;7.00;5.10;;;17.70;93.60;;;;;;5053882;28;20524;-69
2023/08/12 03:32:46;;;;;;;7.07;5.70;;;17.70;93.90;;;;;;5054680;28;20567;-69
2023/08/12 03:35:13;;;;;;;7.57;5.53;;;17.70;94.00;;;;;;5054086;28;20434;-69
2023/08/12 03:37:41;;;;;;;7.30;5.40;;;17.70;94.20;;;;;;5054493;28;20438;-69
2023/08/12 03:40:11;;;;;;;6.53;4.90;;;17.70;94.20;;;;;;5053805;28;20542;-70
2023/08/12 03:42:38;;;;;;;5.70;4.83;;;17.70;94.00;;;;;;5054099;28;20442;-69
2023/08/12 03:45:07;;;;;;;6.50;4.50;;;17.60;93.80;;;;;;5054230;28;20803;-69
2023/08/12 03:47:34;;;;;;;8.53;5.13;;;17.60;93.80;;;;;;5054033;28;20963;-69
2023/08/12 03:50:03;;;;;;;5.93;4.00;;;17.60;93.80;;;;;;5054144;28;20487;-70
2023/08/12 03:52:31;;;;;;;10.87;5.60;;;17.60;93.70;;;;;;5053950;28;20792;-69
2023/08/12 03:54:59;;;;;;;6.43;4.73;;;17.60;93.80;;;;;;5054023;28;20504;-69
2023/08/12 03:57:27;;;;;;;7.10;4.33;;;17.60;93.60;;;;;;5054062;28;20429;-69
2023/08/12 03:59:57;;;;;;;6.30;5.20;;;17.50;93.70;;;;;;5053672;28;20470;-69
2023/08/12 04:02:29;;;;;;;6.30;5.03;;;17.50;94.10;;;;;;5052835;28;20445;-69
2023/08/12 04:04:56;;;;;;;7.57;4.23;;;17.50;93.90;;;;;;5053729;28;20438;-69
2023/08/12 04:07:24;;;;;;;8.47;5.50;;;17.50;93.40;;;;;;5053548;28;20939;-69
2023/08/12 04:09:51;;;;;;;8.47;4.63;;;17.50;93.30;;;;;;5053353;28;20481;-69
2023/08/12 04:12:19;;;;;;;7.27;5.87;;;17.50;93.40;;;;;;5053080;28;20442;-69
2023/08/12 04:14:48;;;;;;;5.30;4.00;;;17.50;93.40;;;;;;5053820;28;20470;-69
2023/08/12 04:17:15;;;;;;;9.33;5.77;;;17.40;93.50;;;;;;5053683;28;20433;-69
2023/08/12 04:19:43;;;;;;;5.27;3.83;;;17.40;93.50;;;;;;5052960;28;20441;-69
2023/08/12 04:22:10;;;;;;;8.23;4.30;;;17.40;93.50;;;;;;5053653;28;20537;-69
2023/08/12 04:24:37;;;;;;;5.73;4.33;;;17.30;93.50;;;;;;5053330;28;20438;-75
2023/08/12 04:27:05;;;;;;;8.27;5.00;;;17.30;93.70;;;;;;5053239;28;20437;-69
2023/08/12 04:29:32;;;;;;;5.23;4.20;;;17.30;94.00;;;;;;5052716;28;20462;-69
2023/08/12 04:32:01;;;;;;;8.97;4.80;;;17.30;94.00;;;;;;5052953;28;20445;-69
2023/08/12 04:34:30;;;;;;;7.10;4.90;;;17.30;93.60;;;;;;5053022;28;20436;-69
2023/08/12 04:36:59;;;;;;;6.53;4.23;;;17.30;93.80;;;;;;5053667;28;20442;-69
2023/08/12 04:39:27;;;;;;;6.00;5.00;;;17.30;93.90;;;;;;5052884;28;20437;-69
2023/08/12 04:41:54;;;;;;;6.80;6.10;;;17.30;93.90;;;;;;5053227;28;20538;-68
2023/08/12 04:44:22;;;;;;;6.63;5.93;;;17.30;94.10;;;;;;5053038;28;20932;-69
2023/08/12 04:46:50;;;;;;;9.10;6.00;;;17.30;94.20;;;;;;5053274;28;20809;-69
2023/08/12 04:49:25;;;;;;;7.20;6.00;;;17.30;94.30;;;;;;5053415;28;20851;-69
2023/08/12 04:51:53;;;;;;;7.47;4.90;;;17.30;94.50;;;;;;5053262;28;20432;-71
2023/08/12 04:54:23;;;;;;;7.20;5.33;;;17.30;94.80;;;;;;5053341;28;20873;-70
2023/08/12 04:56:52;;;;;;;10.63;6.23;;;17.40;95.20;;;;;;5052818;28;20448;-69
2023/08/12 04:59:19;;;;;;;7.93;5.23;;;17.40;95.60;;;;;;5052033;28;20836;-69
2023/08/12 05:01:49;;;;;;;5.80;4.53;;;17.40;96.50;;;;;;5052646;28;21131;-69
2023/08/12 05:04:16;;;;;;;8.70;5.50;;;17.40;96.90;;;;;;5052911;28;20437;-69
2023/08/12 05:06:45;;;;;;;7.60;5.63;;;17.40;97.10;;;;;;5052830;28;20549;-69
2023/08/12 05:09:12;;;;;;;6.43;4.70;;;17.50;97.30;;;;;;5052806;28;20476;-69
2023/08/12 05:11:41;;;;;;;14.77;7.43;;;17.60;97.40;;;;;;5052351;28;20475;-69
2023/08/12 05:14:09;;;;;;;7.73;5.90;;;17.70;97.50;;;;;;5055386;28;20465;-69
2023/08/12 05:16:36;;;;;;;5.93;5.10;;;17.80;97.70;;;;;;5056796;28;20438;-69
2023/08/12 05:19:03;;;;;;;7.17;5.40;;;17.80;97.60;;;;;;5055962;28;20443;-69
2023/08/12 05:21:32;;;;;;;7.03;5.17;;;17.90;97.70;;;;;;5056162;28;20478;-69
2023/08/12 05:24:01;;;;;;;9.63;5.30;;;17.90;97.60;;;;;;5057096;28;20438;-69
2023/08/12 05:26:33;;;;;;;6.10;5.33;;;18.00;97.70;;;;;;5056420;28;20911;-69
2023/08/12 05:29:00;;;;;;;8.70;5.90;;;18.10;97.70;;;;;;5056494;28;20433;-69
2023/08/12 05:31:28;;;;;;;7.13;5.17;;;18.20;97.60;;;;;;5056478;28;20796;-69
2023/08/12 05:33:55;;;;;;;6.27;4.70;;;18.20;97.60;;;;;;5056532;28;20522;-69
2023/08/12 05:36:22;;;;;;;7.47;5.60;;;18.30;97.80;;;;;;5056397;28;20435;-69
2023/08/12 05:38:50;;;;;;;6.50;4.90;;;18.40;97.60;;;;;;5056220;28;20449;-69
2023/08/12 05:41:19;;;;;;;7.07;4.97;;;18.40;97.50;;;;;;5056083;28;20976;-69
2023/08/12 05:43:54;;;;;;;7.30;5.67;;;18.50;97.90;;;;;;5056264;28;20923;-69
2023/08/12 05:46:22;;;;;;;6.93;4.70;;;18.60;98.00;;;;;;5056598;28;20775;-69
2023/08/12 05:48:49;;;;;;;8.13;4.97;;;18.70;98.20;;;;;;5056167;28;20808;-69
2023/08/12 05:51:25;;;;;;;8.23;5.33;;;18.80;98.50;;;;;;5056301;28;20445;-69
2023/08/12 05:53:53;;;;;;;7.93;6.00;;;18.80;98.80;;;;;;5056406;28;20821;-69
2023/08/12 05:56:22;;;;;;;5.70;4.70;;;19.00;98.70;;;;;;5055861;28;20445;-69
2023/08/12 05:58:49;;;;;;;9.20;5.13;;;19.10;98.80;;;;;;5055746;28;20434;-69
2023/08/12 06:01:16;;;;;;;6.40;4.50;;;19.20;99.00;;;;;;5055421;28;20476;-73
2023/08/12 06:03:44;;;;;;;5.00;4.40;;;19.30;99.10;;;;;;5036518;28;20435;-69
2023/08/12 06:06:11;;;;;;;6.40;4.17;;;19.40;99.30;;;;;;5035870;28;20434;-69
2023/08/12 06:08:39;;;;;;;7.53;4.90;;;19.60;99.40;;;;;;5038963;28;20448;-69
2023/08/12 06:11:06;;;;;;;9.90;6.17;;;19.70;99.20;;;;;;5055489;28;20481;-69
2023/08/12 06:13:35;;;;;;;10.90;6.20;;;19.90;99.00;;;;;;5055091;28;20439;-69
2023/08/12 06:16:02;;;;;;;6.73;4.97;;;20.10;98.80;;;;;;5055236;28;20435;-69
2023/08/12 06:18:31;;;;;;;5.93;4.90;;;20.20;98.80;;;;;;5055610;28;20440;-69
2023/08/12 06:20:58;;;;;;;6.27;4.40;;;20.30;98.80;;;;;;5055541;28;20544;-69
2023/08/12 06:23:26;;;;;;;6.30;4.80;;;20.50;98.80;;;;;;5055539;28;20431;-69
2023/08/12 06:25:53;;;;;;;8.10;6.30;;;20.60;98.90;;;;;;5055389;28;20446;-69
2023/08/12 06:28:20;;;;;;;9.83;6.87;;;20.80;98.90;;;;;;5054852;28;20451;-73
2023/08/12 06:30:49;;;;;;;6.50;4.67;;;20.90;98.80;;;;;;5035612;28;20436;-69
2023/08/12 06:33:19;;;;;;;9.00;4.70;;;21.00;98.70;;;;;;5046347;28;20521;-69
2023/08/12 06:35:48;;;;;;;5.83;4.60;;;21.20;98.30;;;;;;5055572;28;20443;-69
2023/08/12 06:38:18;;;;;;;5.00;4.00;;;21.30;97.80;;;;;;5055687;28;20471;-69
2023/08/12 06:40:46;;;;;;;8.30;4.13;;;21.40;97.80;;;;;;5054843;28;20592;-69
2023/08/12 06:43:13;;;;;;;6.00;4.20;;;21.50;97.40;;;;;;5055464;28;20781;-69
2023/08/12 06:45:41;;;;;;;6.00;3.93;;;21.60;97.30;;;;;;5055133;28;20435;-69
2023/08/12 06:48:10;;;;;;;6.50;4.07;;;21.70;96.50;;;;;;5055300;28;20443;-70
2023/08/12 06:50:37;;;;;;;6.43;4.50;;;21.70;96.50;;;;;;5054692;28;20505;-69
2023/08/12 06:53:05;;;;;;;4.47;3.20;;;21.70;96.40;;;;;;5055284;28;20431;-69
2023/08/12 06:55:32;;;;;;;5.10;3.50;;;21.80;96.30;;;;;;5055132;28;20438;-69
2023/08/12 06:58:00;;;;;;;4.97;3.33;;;21.90;96.20;;;;;;5053463;28;20487;-69
2023/08/12 07:00:28;;;;;;;5.47;3.40;;;21.90;96.00;;;;;;5053703;28;20467;-69
2023/08/12 07:02:55;;;;;;;5.20;3.70;;;22.00;95.80;;;;;;5053891;28;20423;-69
2023/08/12 07:05:24;;;;;;;5.83;4.57;;;22.10;95.60;;;;;;5054685;28;20527;-70
2023/08/12 07:07:52;;;;;;;5.73;3.83;;;22.20;95.80;;;;;;5053296;28;20451;-69
2023/08/12 07:10:19;;;;;;;7.50;4.23;;;22.20;96.50;;;;;;5053747;28;20474;-69
2023/08/12 07:12:47;;;;;;;4.67;3.57;;;22.30;96.60;;;;;;5053715;28;20436;-70
2023/08/12 07:15:14;;;;;;;5.40;4.90;;;22.40;96.60;;;;;;5054239;28;20445;-70
2023/08/12 07:17:41;;;;;;;7.13;4.47;;;22.50;96.60;;;;;;5053903;28;20908;-70
2023/08/12 07:20:09;;;;;;;4.97;3.73;;;22.60;96.70;;;;;;5053975;28;20950;-69
2023/08/12 07:22:38;;;;;;;4.57;3.60;;;22.70;96.80;;;;;;5053513;28;20471;-69
2023/08/12 07:25:06;;;;;;;6.10;3.90;;;22.70;96.70;;;;;;5053525;28;20466;-70
2023/08/12 07:27:36;;;;;;;7.63;3.63;;;22.80;96.80;;;;;;5053668;28;20451;-70
2023/08/12 07:30:03;;;;;;;5.90;4.67;;;22.90;97.00;;;;;;5053702;28;20493;-69
2023/08/12 07:32:32;;;;;;;9.37;3.83;;;23.00;97.10;;;;;;5053644;28;20433;-69
2023/08/12 07:35:00;;;;;;;7.90;3.97;;;23.10;97.00;;;;;;5033776;28;20450;-70
2023/08/12 07:37:30;;;;;;;4.97;3.97;;;23.20;97.00;;;;;;5033358;28;20796;-69
2023/08/12 07:39:59;;;;;;;5.47;3.60;;;23.20;96.90;;;;;;5033755;28;20434;-70
2023/08/12 07:42:27;;;;;;;5.33;4.70;;;23.30;96.70;;;;;;5033542;28;20469;-69
2023/08/12 07:44:54;;;;;;;5.47;3.73;;;23.40;96.10;;;;;;5053150;28;20455;-69
2023/08/12 07:47:21;;;;;;;9.63;3.90;;;23.50;96.10;;;;;;5053789;28;20437;-70
2023/08/12 07:49:48;;;;;;;5.80;3.60;;;23.50;96.10;;;;;;5053238;28;20913;-70
2023/08/12 07:52:16;;;;;;;5.63;3.97;;;23.60;96.20;;;;;;5053267;28;20437;-70
2023/08/12 07:54:43;;;;;;;6.13;3.60;;;23.70;96.10;;;;;;5052090;28;20507;-69
2023/08/12 07:57:11;;;;;;;6.67;3.03;;;23.80;95.60;;;;;;5053573;28;20437;-69
2023/08/12 07:59:40;;;;;;;6.27;4.33;;;23.90;95.70;;;;;;5053193;28;20487;-69
2023/08/12 08:02:07;;;;;;;5.73;4.07;;;24.00;95.70;;;;;;5053492;28;20512;-70
2023/08/12 08:04:34;;;;;;;5.80;3.97;;;24.10;95.50;;;;;;5053410;28;20480;-70
2023/08/12 08:07:01;;;;;;;6.07;3.60;;;24.30;95.50;;;;;;5052659;28;20508;-70
2023/08/12 08:09:29;;;;;;;5.10;3.90;;;24.50;95.40;;;;;;5051802;28;20939;-70
2023/08/12 08:11:56;;;;;;;6.53;3.83;;;24.70;94.70;;;;;;5052944;28;20433;-70
2023/08/12 08:14:24;;;;;;;5.47;4.17;;;24.70;93.70;;;;;;5051894;28;20469;-70
2023/08/12 08:16:52;;;;;;;4.63;3.43;;;24.90;93.30;;;;;;5052845;28;20425;-70
2023/08/12 08:19:19;;;;;;;6.23;3.80;;;24.90;92.80;;;;;;5039299;28;20528;-69
2023/08/12 08:21:46;;;;;;;7.63;3.67;;;25.00;92.60;;;;;;5032209;28;20556;-69
2023/08/12 08:24:13;;;;;;;5.43;3.70;;;25.10;92.40;;;;;;5032795;28;20477;-70
2023/08/12 08:26:41;;;;;;;5.10;3.33;;;25.10;92.20;;;;;;5034189;28;20443;-71
2023/08/12 08:29:08;;;;;;;5.20;3.77;;;25.20;92.00;;;;;;5052168;28;20798;-69
2023/08/12 08:31:38;;;;;;;5.53;4.00;;;25.30;92.20;;;;;;5052860;28;20552;-70
2023/08/12 08:34:05;;;;;;;6.90;4.37;;;25.30;92.20;;;;;;5052817;28;20441;-70
2023/08/12 08:36:32;;;;;;;5.50;3.80;;;25.40;91.80;;;;;;5052091;28;20466;-69
2023/08/12 08:38:59;;;;;;;4.90;3.87;;;25.50;91.70;;;;;;5051627;28;20524;-69
2023/08/12 08:41:30;;;;;;;5.00;3.83;;;25.50;91.70;;;;;;5051797;28;20572;-69
2023/08/12 08:44:02;;;;;;;5.27;4.27;;;25.60;91.10;;;;;;5052311;28;20471;-70
2023/08/12 08:46:30;;;;;;;4.93;3.53;;;25.50;90.60;;;;;;5052486;28;20432;-70
2023/08/12 08:49:00;;;;;;;7.10;3.67;;;25.60;90.80;;;;;;5051302;28;20524;-70
2023/08/12 08:51:31;;;;;;;5.03;4.13;;;25.60;90.70;;;;;;5051445;28;20437;-71
2023/08/12 08:53:59;;;;;;;6.50;5.00;;;25.60;91.00;;;;;;5052698;28;20468;-70
2023/08/12 08:56:26;;;;;;;7.60;5.43;;;25.70;91.00;;;;;;5052162;28;20437;-69
2023/08/12 08:58:54;;;;;;;7.97;5.10;;;25.70;90.80;;;;;;5052041;28;20460;-70
2023/08/12 09:01:22;;;;;;;7.73;6.07;;;25.80;90.70;;;;;;5051316;28;20477;-70
2023/08/12 09:03:53;;;;;;;6.07;4.60;;;25.80;90.00;;;;;;5051493;28;20441;-70
2023/08/12 09:06:22;;;;;;;6.90;3.87;;;25.80;89.60;;;;;;5052564;28;20434;-69
2023/08/12 09:08:52;;;;;;;4.90;3.67;;;25.90;89.10;;;;;;5051811;28;20437;-70
2023/08/12 09:11:20;;;;;;;5.27;3.73;;;26.10;90.00;;;;;;5050808;28;20552;-70
2023/08/12 09:13:47;;;;;;;4.27;3.33;;;26.20;89.20;;;;;;5051194;28;20437;-70
2023/08/12 09:16:14;;;;;;;8.10;3.87;;;26.40;86.30;;;;;;5051871;28;20534;-70
2023/08/12 09:18:43;;;;;;;6.53;3.47;;;26.70;87.00;;;;;;5051456;28;20456;-70
2023/08/12 09:21:10;;;;;;;5.53;3.47;;;26.90;84.80;;;;;;5044612;28;20437;-70
2023/08/12 09:23:40;;;;;;;6.23;4.30;;;27.10;84.40;;;;;;5052620;28;20433;-70
2023/08/12 09:26:14;;;;;;;8.53;3.67;;;27.30;83.20;;;;;;5052561;28;20494;-70
2023/08/12 09:28:42;;;;;;;4.10;3.63;;;27.50;82.00;;;;;;5050346;28;20444;-70
2023/08/12 09:31:09;;;;;;;4.00;3.30;;;27.60;79.90;;;;;;5051430;28;20476;-70
2023/08/12 09:33:40;;;;;;;4.70;3.27;;;27.80;78.80;;;;;;5050814;28;20465;-70
2023/08/12 09:36:07;;;;;;;5.33;4.40;;;28.00;77.90;;;;;;5052296;28;20541;-70
2023/08/12 09:38:34;;;;;;;4.30;3.50;;;28.20;77.20;;;;;;5051051;28;20473;-70
2023/08/12 09:41:03;;;;;;;5.13;3.00;;;28.30;72.70;;;;;;5048560;28;20429;-72
2023/08/12 09:43:32;;;;;;;5.80;3.20;;;28.30;70.30;;;;;;5051997;28;20472;-69
2023/08/12 09:45:59;;;;;;;4.83;3.10;;;28.20;65.20;;;;;;5051982;28;20437;-69
2023/08/12 09:48:27;;;;;;;4.77;3.33;;;28.10;62.80;;;;;;5050134;28;20452;-69
2023/08/12 09:50:54;;;;;;;4.10;3.17;;;28.10;65.00;;;;;;5051394;28;20757;-70
2023/08/12 09:53:25;;;;;;;4.50;3.10;;;28.30;67.90;;;;;;5051552;28;20792;-71
2023/08/12 09:55:55;;;;;;;5.77;3.57;;;28.40;69.70;;;;;;5030511;28;20422;-69
2023/08/12 09:58:25;;;;;;;4.73;3.20;;;28.60;70.70;;;;;;5037894;28;20495;-71
2023/08/12 10:00:53;;;;;;;5.20;3.63;;;28.80;68.10;;;;;;5055207;28;20512;-69
2023/08/12 10:03:22;;;;;;;5.33;3.50;;;28.90;66.50;;;;;;5054380;28;20504;-69
2023/08/12 10:05:49;;;;;;;6.33;3.23;;;28.90;64.30;;;;;;5054413;28;20441;-71
2023/08/12 10:08:18;;;;;;;4.53;2.87;;;29.10;66.10;;;;;;5054911;28;20429;-69
2023/08/12 10:10:46;;;;;;;3.70;2.70;;;29.30;66.40;;;;;;5049566;28;20514;-70
2023/08/12 10:13:13;;;;;;;10.30;3.17;;;29.50;65.40;;;;;;5054845;28;20445;-70
2023/08/12 10:15:42;;;;;;;5.60;3.40;;;29.80;63.80;;;;;;5054888;28;20532;-70
2023/08/12 10:18:10;;;;;;;6.23;3.77;;;29.90;63.70;;;;;;5051891;28;20525;-70
2023/08/12 10:20:38;;;;;;;5.67;3.37;;;30.00;61.50;;;;;;5055114;28;20474;-70
2023/08/12 10:23:06;;;;;;;4.73;2.97;;;30.20;62.10;;;;;;5053522;28;20512;-70
2023/08/12 10:25:34;;;;;;;7.03;2.70;;;30.30;59.30;;;;;;5054217;28;20433;-70
2023/08/12 10:28:05;;;;;;;9.50;3.37;;;30.30;59.30;;;;;;5054012;28;20959;-71
2023/08/12 10:30:35;;;;;;;3.97;3.00;;;30.50;61.30;;;;;;5053377;28;20475;-73
2023/08/12 10:33:06;;;;;;;4.90;3.10;;;30.60;61.40;;;;;;5032806;28;20509;-70
2023/08/12 10:35:43;;;;;;;5.07;3.60;;;30.70;59.00;;;;;;5053070;28;20438;-70
2023/08/12 10:38:12;;;;;;;7.20;3.60;;;30.80;60.20;;;;;;5034386;28;20439;-70
2023/08/12 10:40:40;;;;;;;4.30;3.10;;;30.90;59.70;;;;;;5049595;28;20465;-70
2023/08/12 10:43:07;;;;;;;4.10;3.30;;;31.10;60.90;;;;;;5053786;28;20543;-70
2023/08/12 10:45:45;;;;;;;5.23;3.63;;;31.20;58.90;;;;;;5050592;28;20433;-70
2023/08/12 10:48:20;;;;;;;4.27;3.20;;;31.30;58.70;;;;;;5054823;28;20487;-70
2023/08/12 10:50:52;;;;;;;4.17;3.30;;;31.40;57.50;;;;;;5053909;28;20452;-70
2023/08/12 10:53:29;;;;;;;6.27;3.17;;;31.50;58.20;;;;;;5054119;28;20960;-70
2023/08/12 10:55:58;;;;;;;6.57;3.43;;;31.70;57.30;;;;;;5055102;28;20422;-69
2023/08/12 10:58:29;;;;;;;4.07;2.97;;;31.80;56.40;;;;;;5053749;28;20452;-70
2023/08/12 11:00:57;;;;;;;5.60;3.77;;;31.80;55.10;;;;;;5054572;28;20461;-69
2023/08/12 11:03:53;;;;;;;5.90;2.90;;;31.90;54.80;;;;;;5053033;28;21021;-73
2023/08/12 11:06:21;;;;;;;5.03;3.50;;;32.00;55.00;;;;;;5042456;28;20422;-70
2023/08/12 11:08:48;;;;;;;3.90;2.67;;;32.20;53.50;;;;;;5053473;28;21035;-71
2023/08/12 11:11:21;;;;;;;6.17;3.63;;;32.30;53.20;;;;;;5040668;28;20528;-71
2023/08/12 11:13:53;;;;;;;4.47;3.23;;;32.40;54.40;;;;;;5048932;28;20444;-70
2023/08/12 11:16:31;;;;;;;3.40;2.80;;;32.50;53.90;;;;;;5054093;28;20468;-70
2023/08/12 11:19:00;;;;;;;4.87;2.70;;;32.70;55.20;;;;;;5053196;28;21009;-69
2023/08/12 11:21:28;;;;;;;4.77;3.40;;;32.80;51.60;;;;;;5052690;28;20533;-70
2023/08/12 11:23:56;;;;;;;3.43;2.73;;;32.80;52.50;;;;;;5053910;28;20996;-70
2023/08/12 11:26:24;;;;;;;4.00;3.00;;;32.80;52.60;;;;;;5054207;28;20437;-70
2023/08/12 11:28:51;;;;;;;5.17;3.10;;;33.00;54.20;;;;;;5052939;28;20469;-70
2023/08/12 11:31:19;;;;;;;5.43;2.90;;;33.20;55.60;;;;;;5053583;28;20476;-72
2023/08/12 11:33:46;;;;;;;4.50;3.10;;;33.40;55.10;;;;;;5054037;28;20465;-70
2023/08/12 11:36:15;;;;;;;5.90;3.50;;;33.50;53.00;;;;;;5052074;28;20507;-70
2023/08/12 11:38:43;;;;;;;4.77;3.77;;;33.60;52.90;;;;;;5054139;28;20433;-70
2023/08/12 11:41:11;;;;;;;4.30;3.43;;;33.60;52.70;;;;;;5052275;28;20433;-70
2023/08/12 11:43:38;;;;;;;4.43;3.27;;;33.60;51.70;;;;;;5053461;28;20477;-70
2023/08/12 11:46:05;;;;;;;3.80;2.80;;;33.60;51.00;;;;;;5053522;28;20890;-70
2023/08/12 11:48:32;;;;;;;5.50;3.10;;;33.50;49.70;;;;;;5053195;28;20437;-70
2023/08/12 11:50:59;;;;;;;5.30;3.23;;;33.30;48.70;;;;;;5053075;28;20466;-70
2023/08/12 11:53:28;;;;;;;4.93;3.30;;;33.10;48.60;;;;;;5052682;28;20866;-69
2023/08/12 11:55:55;;;;;;;6.73;3.17;;;33.00;49.50;;;;;;5053719;28;20441;-70
2023/08/12 11:58:23;;;;;;;4.63;3.27;;;32.90;50.80;;;;;;5053368;28;20433;-70
2023/08/12 12:00:50;;;;;;;4.63;2.63;;;32.80;49.70;;;;;;5052706;28;20473;-71
2023/08/12 12:03:17;;;;;;;6.40;3.30;;;32.90;51.60;;;;;;5052954;28;20488;-70
2023/08/12 12:05:48;;;;;;;5.63;3.43;;;33.00;50.60;;;;;;5052636;28;20489;-71
2023/08/12 12:08:15;;;;;;;4.23;2.90;;;33.00;47.50;;;;;;5052987;28;20441;-71
2023/08/12 12:10:44;;;;;;;4.97;2.93;;;33.00;46.90;;;;;;5052752;28;20465;-70
2023/08/12 12:13:12;;;;;;;3.30;2.63;;;32.90;45.30;;;;;;5053059;28;20485;-70
2023/08/12 12:15:42;;;;;;;6.40;3.37;;;32.90;45.70;;;;;;5052738;28;20446;-69
2023/08/12 12:18:12;;;;;;;3.23;2.37;;;33.00;46.20;;;;;;5052750;28;20466;-70
2023/08/12 12:20:43;;;;;;;3.77;2.80;;;33.00;45.30;;;;;;5052990;28;20438;-70
2023/08/12 12:23:10;;;;;;;4.97;3.43;;;33.20;45.80;;;;;;5051984;28;21034;-73
2023/08/12 12:25:38;;;;;;;4.13;2.93;;;33.20;45.20;;;;;;5051275;28;20531;-70
2023/08/12 12:28:06;;;;;;;5.23;2.67;;;33.30;46.00;;;;;;5051200;28;20429;-70
2023/08/12 12:30:33;;;;;;;7.03;2.83;;;33.40;45.90;;;;;;5053007;28;20513;-70
2023/08/12 12:33:00;;;;;;;4.13;2.73;;;33.30;44.50;;;;;;5052056;28;20481;-71
2023/08/12 12:35:26;;;;;;;3.60;2.40;;;33.40;44.50;;;;;;5051419;28;20495;-70
2023/08/12 12:37:53;;;;;;;6.83;2.60;;;33.50;44.40;;;;;;5052340;28;20429;-70
2023/08/12 12:40:20;;;;;;;5.17;3.53;;;33.50;44.00;;;;;;5052593;28;20499;-70
2023/08/12 12:42:47;;;;;;;5.90;2.77;;;33.40;43.90;;;;;;5052538;28;20849;-70
2023/08/12 12:45:17;;;;;;;3.77;2.10;;;33.30;42.20;;;;;;5048832;28;21001;-70
2023/08/12 12:47:44;;;;;;;3.33;2.27;;;33.20;42.00;;;;;;5050821;28;20433;-70
2023/08/12 12:50:11;;;;;;;7.13;2.53;;;33.10;42.20;;;;;;5052278;28;20445;-70
2023/08/12 12:52:38;;;;;;;5.10;3.40;;;32.90;42.30;;;;;;5052456;28;20465;-68